Time;durP1;ratioP1;P1;durP2;ratioP2;P2;SDS_P1;SDS_P2;PMS_P1;PMS_P2;Temp;Humidity;BMP_temperature;BMP_pressure;BME280_temperature;BME280_humidity;BME280_pressure;Samples;Min_cycle;Max_cycle;Signal;HPM_P1;HPM_P2
2022/01/31 00:01:17;;;;;;;27.60;4.97;;;4.20;99.90;;;;;;6130471;23;20021;-78
2022/01/31 00:03:47;;;;;;;24.33;5.15;;;4.20;99.90;;;;;;6152110;23;20025;-79
2022/01/31 00:06:33;;;;;;;20.33;6.13;;;4.20;99.90;;;;;;6106680;23;20523;-78
2022/01/31 00:09:12;;;;;;;24.38;5.20;;;4.20;99.90;;;;;;6124864;23;20073;-78
2022/01/31 00:11:51;;;;;;;30.88;6.68;;;4.20;99.90;;;;;;6127986;23;20025;-78
2022/01/31 00:14:30;;;;;;;27.67;7.43;;;4.20;99.90;;;;;;6084409;23;20049;-79
2022/01/31 00:16:56;;;;;;;33.60;5.97;;;4.20;99.90;;;;;;6126435;23;20025;-78
2022/01/31 00:19:22;;;;;;;20.85;5.00;;;4.20;99.90;;;;;;6126743;23;20365;-79
2022/01/31 00:21:47;;;;;;;24.20;6.45;;;4.20;99.90;;;;;;6102225;23;20029;-78
2022/01/31 00:24:13;;;;;;;27.33;7.68;;;4.20;99.90;;;;;;6145982;23;20060;-79
2022/01/31 00:26:39;;;;;;;30.10;7.40;;;4.20;99.90;;;;;;6126215;23;20504;-79
2022/01/31 00:29:05;;;;;;;33.55;7.78;;;4.20;99.90;;;;;;6127107;23;20137;-79
2022/01/31 00:31:32;;;;;;;20.65;8.02;;;4.20;99.90;;;;;;6127102;23;20104;-80
2022/01/31 00:33:58;;;;;;;24.13;7.97;;;4.20;99.90;;;;;;6127261;23;20017;-79
2022/01/31 00:36:24;;;;;;;28.58;8.85;;;4.20;99.90;;;;;;6128799;23;20035;-79
2022/01/31 00:38:53;;;;;;;25.80;9.50;;;4.20;99.90;;;;;;6105467;23;20491;-78
2022/01/31 00:41:50;;;;;;;30.87;10.37;;;4.10;99.90;;;;;;6153579;23;20023;-78
2022/01/31 00:44:39;;;;;;;33.92;9.55;;;4.10;99.90;;;;;;6104998;23;20253;-79
2022/01/31 00:47:24;;;;;;;28.52;9.45;;;4.10;99.90;;;;;;6057424;23;20088;-79
2022/01/31 00:50:10;;;;;;;27.73;9.52;;;4.10;99.90;;;;;;6068412;23;20518;-79
2022/01/31 00:52:44;;;;;;;44.70;10.70;;;4.10;99.90;;;;;;6070485;23;20062;-78
2022/01/31 00:55:12;;;;;;;31.42;11.15;;;4.00;99.90;;;;;;6053573;23;20421;-79
2022/01/31 00:57:40;;;;;;;26.02;9.65;;;4.00;99.90;;;;;;6095860;23;20034;-79
2022/01/31 01:00:08;;;;;;;28.90;9.98;;;4.00;99.90;;;;;;6093797;23;20034;-76
2022/01/31 01:02:34;;;;;;;32.47;9.30;;;4.00;99.90;;;;;;6071069;23;20026;-79
2022/01/31 01:05:00;;;;;;;37.92;11.00;;;4.00;99.90;;;;;;6069819;23;20026;-78
2022/01/31 01:07:26;;;;;;;24.45;9.25;;;4.00;99.90;;;;;;6070301;23;20427;-77
2022/01/31 01:09:52;;;;;;;24.10;7.70;;;3.90;99.90;;;;;;6045893;23;20050;-78
2022/01/31 01:12:18;;;;;;;35.53;8.77;;;4.00;99.90;;;;;;6094283;23;20477;-78
2022/01/31 01:14:45;;;;;;;33.30;10.68;;;3.90;99.90;;;;;;6067074;23;20026;-78
2022/01/31 01:17:11;;;;;;;28.83;8.25;;;3.90;99.90;;;;;;6070114;23;20028;-76
2022/01/31 01:19:37;;;;;;;25.55;9.15;;;3.90;99.90;;;;;;6070185;23;20425;-76
2022/01/31 01:22:04;;;;;;;36.45;11.20;;;3.90;99.90;;;;;;6045705;23;20028;-77
2022/01/31 01:24:31;;;;;;;27.90;8.93;;;3.90;99.90;;;;;;6109239;23;20030;-77
2022/01/31 01:27:01;;;;;;;21.27;9.40;;;3.80;99.90;;;;;;6105267;23;20059;-77
2022/01/31 01:29:32;;;;;;;28.70;9.65;;;3.80;99.90;;;;;;6106477;23;20365;-78
2022/01/31 01:31:58;;;;;;;28.45;10.88;;;3.80;99.90;;;;;;6105642;23;20028;-77
2022/01/31 01:34:25;;;;;;;31.30;10.93;;;3.80;99.90;;;;;;6129801;23;20026;-78
2022/01/31 01:36:53;;;;;;;22.08;9.93;;;3.80;99.90;;;;;;6154028;23;20517;-76
2022/01/31 01:39:19;;;;;;;28.23;9.65;;;3.70;99.90;;;;;;6154198;23;20021;-78
2022/01/31 01:41:45;;;;;;;26.77;11.30;;;3.70;99.90;;;;;;6154029;23;20029;-77
2022/01/31 01:44:11;;;;;;;33.92;11.15;;;3.60;99.90;;;;;;6155704;23;20083;-75
2022/01/31 01:46:37;;;;;;;28.15;10.65;;;3.60;99.90;;;;;;6156292;23;20021;-77
2022/01/31 01:49:05;;;;;;;26.73;12.02;;;3.60;99.90;;;;;;6155100;23;20354;-76
2022/01/31 01:51:30;;;;;;;26.50;9.52;;;3.60;99.90;;;;;;6104862;23;20033;-76
2022/01/31 01:53:59;;;;;;;21.05;10.93;;;3.60;99.90;;;;;;6129226;23;20357;-75
2022/01/31 01:56:28;;;;;;;20.77;10.43;;;3.60;99.90;;;;;;6105841;23;20025;-76
2022/01/31 01:58:54;;;;;;;23.77;10.88;;;3.60;99.90;;;;;;6153679;23;20111;-76
2022/01/31 02:01:20;;;;;;;24.52;11.65;;;3.60;99.90;;;;;;6128971;23;20025;-76
2022/01/31 02:03:46;;;;;;;18.42;10.88;;;3.60;99.90;;;;;;6153562;23;20028;-77
2022/01/31 02:06:12;;;;;;;18.77;6.97;;;3.50;99.90;;;;;;6128947;23;20028;-77
2022/01/31 02:08:42;;;;;;;14.52;6.95;;;3.50;99.90;;;;;;6153767;23;20028;-76
2022/01/31 02:11:12;;;;;;;12.02;6.18;;;3.50;99.90;;;;;;6203413;23;20030;-77
2022/01/31 02:13:38;;;;;;;11.35;6.18;;;3.40;99.90;;;;;;6153778;23;20029;-76
2022/01/31 02:16:06;;;;;;;10.90;6.47;;;3.30;99.90;;;;;;6153518;23;20017;-75
2022/01/31 02:18:33;;;;;;;12.73;5.88;;;3.30;99.90;;;;;;6153397;23;20022;-76
2022/01/31 02:21:00;;;;;;;10.13;4.45;;;3.20;99.90;;;;;;6152397;23;20028;-77
2022/01/31 02:23:30;;;;;;;11.00;4.65;;;3.20;99.90;;;;;;6153525;23;20458;-77
2022/01/31 02:26:05;;;;;;;12.98;5.00;;;3.20;99.90;;;;;;6129116;23;20053;-76
2022/01/31 02:28:34;;;;;;;12.40;5.22;;;3.30;99.90;;;;;;6123271;23;20026;-76
2022/01/31 02:31:04;;;;;;;10.40;5.78;;;3.30;99.90;;;;;;6131642;23;20079;-76
2022/01/31 02:33:30;;;;;;;9.68;4.60;;;3.20;99.90;;;;;;6154187;23;20030;-78
2022/01/31 02:36:01;;;;;;;11.65;5.00;;;3.30;99.90;;;;;;6155068;23;20457;-76
2022/01/31 02:38:28;;;;;;;13.43;4.68;;;3.20;99.90;;;;;;6153416;23;20445;-77
2022/01/31 02:40:54;;;;;;;11.95;5.70;;;3.20;99.90;;;;;;6153341;23;20030;-77
2022/01/31 02:43:20;;;;;;;16.60;5.50;;;3.30;99.90;;;;;;6153359;23;20026;-75
2022/01/31 02:45:46;;;;;;;16.77;6.80;;;3.30;99.90;;;;;;6153030;23;20346;-76
2022/01/31 02:48:14;;;;;;;19.58;7.53;;;3.30;99.90;;;;;;6153407;23;20028;-77
2022/01/31 02:50:40;;;;;;;15.15;7.45;;;3.40;99.90;;;;;;6155240;23;20084;-77
2022/01/31 02:53:26;;;;;;;18.23;7.20;;;3.50;99.90;;;;;;6178681;23;20025;-77
2022/01/31 02:55:58;;;;;;;18.63;8.30;;;3.50;99.90;;;;;;6153422;23;20025;-77
2022/01/31 02:58:26;;;;;;;16.05;7.43;;;3.60;99.90;;;;;;6129284;23;20025;-77
2022/01/31 03:00:56;;;;;;;13.68;6.13;;;3.80;99.90;;;;;;6153223;23;20018;-77
2022/01/31 03:03:22;;;;;;;19.25;6.40;;;3.90;99.90;;;;;;6154947;23;20029;-76
2022/01/31 03:05:48;;;;;;;24.15;8.00;;;4.00;99.90;;;;;;6152599;23;20021;-77
2022/01/31 03:08:14;;;;;;;20.95;6.15;;;4.00;99.90;;;;;;6178121;23;20048;-75
2022/01/31 03:10:40;;;;;;;21.10;7.15;;;4.00;99.90;;;;;;6152800;23;20032;-77
2022/01/31 03:13:06;;;;;;;19.60;7.25;;;4.00;99.90;;;;;;6152990;23;20346;-75
2022/01/31 03:15:33;;;;;;;19.42;8.02;;;4.00;99.90;;;;;;6152289;23;20026;-76
2022/01/31 03:18:20;;;;;;;16.67;7.78;;;4.00;99.90;;;;;;6154395;23;20024;-76
2022/01/31 03:20:46;;;;;;;25.15;6.00;;;4.10;99.90;;;;;;6099685;23;20018;-76
2022/01/31 03:23:18;;;;;;;20.70;6.80;;;4.20;99.90;;;;;;6098806;23;20446;-76
2022/01/31 03:25:44;;;;;;;29.02;6.28;;;4.30;99.90;;;;;;6097796;23;20446;-76
2022/01/31 03:28:10;;;;;;;41.35;8.52;;;4.40;99.90;;;;;;6097881;23;20094;-76
2022/01/31 03:30:36;;;;;;;39.20;7.43;;;4.70;99.90;;;;;;6073328;23;20362;-75
2022/01/31 03:33:02;;;;;;;42.08;5.30;;;5.00;99.90;;;;;;6097379;23;20022;-76
2022/01/31 03:35:28;;;;;;;18.10;3.63;;;5.10;99.90;;;;;;6097294;23;20091;-75
2022/01/31 03:37:53;;;;;;;18.25;5.25;;;5.20;99.90;;;;;;6097639;23;20053;-76
2022/01/31 03:40:20;;;;;;;9.98;1.90;;;5.30;99.90;;;;;;6097268;23;20025;-75
2022/01/31 03:42:45;;;;;;;11.73;3.47;;;5.30;99.90;;;;;;6121984;23;20029;-77
2022/01/31 03:45:12;;;;;;;12.27;2.45;;;5.20;99.90;;;;;;6096907;23;20030;-76
2022/01/31 03:47:45;;;;;;;17.52;3.72;;;5.10;99.90;;;;;;6073457;23;20029;-78
2022/01/31 03:50:23;;;;;;;27.27;4.63;;;5.20;99.90;;;;;;6073572;23;20172;-77
2022/01/31 03:52:53;;;;;;;22.00;4.32;;;5.10;99.90;;;;;;6097806;23;20069;-77
2022/01/31 03:55:19;;;;;;;20.17;3.65;;;5.00;99.90;;;;;;6098122;23;20026;-78
2022/01/31 03:57:46;;;;;;;15.20;3.22;;;5.00;99.90;;;;;;6097855;23;20490;-77
2022/01/31 04:00:14;;;;;;;20.73;3.45;;;4.90;99.90;;;;;;6097747;23;20394;-78
2022/01/31 04:02:41;;;;;;;29.73;4.45;;;4.90;99.90;;;;;;6097664;23;20569;-77
2022/01/31 04:05:08;;;;;;;28.05;4.10;;;4.90;99.90;;;;;;6100224;23;20032;-77
2022/01/31 04:07:34;;;;;;;27.55;4.53;;;4.90;99.90;;;;;;6125208;23;20036;-78
2022/01/31 04:10:00;;;;;;;33.75;7.07;;;5.00;99.90;;;;;;6100921;23;20030;-78
2022/01/31 04:12:31;;;;;;;31.23;5.78;;;5.00;99.90;;;;;;6155088;23;20025;-79
2022/01/31 04:14:57;;;;;;;31.65;6.65;;;5.10;99.90;;;;;;6106020;23;20072;-80
2022/01/31 04:17:25;;;;;;;45.15;6.88;;;5.20;99.90;;;;;;6157154;23;20084;-79
2022/01/31 04:19:54;;;;;;;35.03;5.65;;;5.20;99.90;;;;;;6155016;23;20025;-78
2022/01/31 04:22:26;;;;;;;37.30;7.72;;;5.30;99.90;;;;;;6154946;23;20096;-79
2022/01/31 04:24:59;;;;;;;35.47;7.50;;;5.30;99.90;;;;;;6131063;23;20108;-78
2022/01/31 04:27:28;;;;;;;40.38;8.98;;;5.40;99.90;;;;;;6155056;23;20017;-77
2022/01/31 04:29:54;;;;;;;32.95;6.45;;;5.40;99.90;;;;;;6154926;23;20072;-79
2022/01/31 04:32:22;;;;;;;40.15;7.38;;;5.50;99.90;;;;;;6154613;23;20457;-78
2022/01/31 04:34:49;;;;;;;42.13;8.15;;;5.50;99.90;;;;;;6154332;23;20041;-79
2022/01/31 04:37:15;;;;;;;43.13;8.20;;;5.50;99.90;;;;;;6106403;23;20148;-78
2022/01/31 04:39:41;;;;;;;42.05;8.13;;;5.40;99.90;;;;;;6154100;23;20061;-78
2022/01/31 04:42:07;;;;;;;40.35;7.47;;;5.40;99.90;;;;;;6129873;23;20148;-77
2022/01/31 04:44:35;;;;;;;22.98;4.47;;;5.40;99.90;;;;;;6130295;23;20339;-78
2022/01/31 04:47:01;;;;;;;36.97;6.22;;;5.40;99.90;;;;;;6185686;23;20025;-77
2022/01/31 04:49:27;;;;;;;29.98;5.05;;;5.30;99.90;;;;;;6158974;23;20021;-77
2022/01/31 04:51:55;;;;;;;14.98;2.70;;;5.40;99.90;;;;;;6159710;23;20025;-76
2022/01/31 04:54:21;;;;;;;8.50;1.73;;;5.30;99.90;;;;;;6159814;23;20023;-77
2022/01/31 04:56:50;;;;;;;25.65;4.63;;;5.20;99.90;;;;;;6162726;23;20031;-77
2022/01/31 04:59:17;;;;;;;22.50;2.60;;;5.20;99.90;;;;;;6161637;23;20021;-77
2022/01/31 05:01:46;;;;;;;17.20;2.65;;;5.20;99.90;;;;;;6135367;23;20056;-78
2022/01/31 05:04:12;;;;;;;13.85;3.03;;;5.20;99.90;;;;;;6159206;23;20021;-78
2022/01/31 05:06:54;;;;;;;20.83;3.78;;;5.20;99.90;;;;;;6159178;23;20056;-77
2022/01/31 05:09:20;;;;;;;34.92;4.43;;;5.20;99.90;;;;;;6134062;23;20044;-79
2022/01/31 05:11:51;;;;;;;29.45;4.85;;;5.20;99.90;;;;;;6135954;23;20028;-78
2022/01/31 05:14:17;;;;;;;29.40;4.63;;;5.10;99.90;;;;;;6134222;23;20025;-77
2022/01/31 05:16:43;;;;;;;25.08;4.80;;;5.20;99.90;;;;;;6159255;23;20021;-79
2022/01/31 05:19:15;;;;;;;26.10;4.68;;;5.20;99.90;;;;;;6159213;23;20092;-78
2022/01/31 05:21:41;;;;;;;15.25;3.05;;;5.20;99.90;;;;;;6110271;23;20021;-78
2022/01/31 05:24:07;;;;;;;26.40;4.18;;;5.30;99.90;;;;;;6159251;23;20348;-79
2022/01/31 05:26:34;;;;;;;24.85;4.05;;;5.40;99.90;;;;;;6159482;23;20021;-79
2022/01/31 05:29:24;;;;;;;32.47;5.60;;;5.30;99.90;;;;;;6117207;23;20025;-80
2022/01/31 05:31:53;;;;;;;28.30;3.60;;;5.30;99.90;;;;;;6133831;23;20479;-79
2022/01/31 05:34:27;;;;;;;18.27;3.10;;;5.30;99.90;;;;;;6134922;23;20048;-78
2022/01/31 05:36:56;;;;;;;17.17;3.38;;;5.20;99.90;;;;;;6160379;23;20025;-77
2022/01/31 05:39:24;;;;;;;19.95;3.17;;;5.20;99.90;;;;;;6136870;23;20017;-77
2022/01/31 05:41:51;;;;;;;21.23;3.17;;;5.20;99.90;;;;;;6112006;23;20029;-76
2022/01/31 05:44:19;;;;;;;17.48;3.00;;;5.20;99.90;;;;;;6159121;23;20053;-77
2022/01/31 05:46:45;;;;;;;18.42;2.70;;;5.20;99.90;;;;;;6132351;23;20032;-77
2022/01/31 05:49:14;;;;;;;14.73;2.45;;;5.20;99.90;;;;;;6134755;23;20025;-77
2022/01/31 05:51:51;;;;;;;23.52;3.17;;;5.20;99.90;;;;;;6110049;23;20028;-77
2022/01/31 05:54:17;;;;;;;23.00;3.53;;;5.20;99.90;;;;;;6185679;23;20021;-77
2022/01/31 05:56:43;;;;;;;20.40;3.95;;;5.30;99.90;;;;;;6158808;23;20028;-77
2022/01/31 05:59:09;;;;;;;14.80;2.78;;;5.30;99.90;;;;;;6134081;23;20017;-79
2022/01/31 06:01:38;;;;;;;18.63;2.50;;;5.30;99.90;;;;;;6185305;23;20029;-76
2022/01/31 06:04:09;;;;;;;19.02;2.40;;;5.20;99.90;;;;;;6134483;23;20033;-77
2022/01/31 06:06:36;;;;;;;14.07;1.98;;;5.20;99.90;;;;;;6133948;23;20083;-78
2022/01/31 06:09:04;;;;;;;11.88;2.38;;;5.20;99.90;;;;;;6185421;23;20460;-76
2022/01/31 06:11:31;;;;;;;18.58;3.90;;;5.20;99.90;;;;;;6158704;23;20326;-78
2022/01/31 06:14:02;;;;;;;20.15;2.90;;;5.10;99.90;;;;;;6158882;23;20056;-78
2022/01/31 06:16:32;;;;;;;22.88;3.33;;;5.10;99.90;;;;;;6135522;23;20021;-77
2022/01/31 06:18:59;;;;;;;20.92;4.68;;;5.20;99.90;;;;;;6158370;23;20021;-78
2022/01/31 06:21:28;;;;;;;26.33;3.78;;;5.20;99.90;;;;;;6134247;23;20025;-78
2022/01/31 06:23:56;;;;;;;22.00;3.67;;;5.30;99.90;;;;;;6110439;23;20025;-78
2022/01/31 06:26:22;;;;;;;15.30;2.95;;;5.30;99.90;;;;;;6160854;23;20021;-78
2022/01/31 06:28:50;;;;;;;33.55;4.85;;;5.30;99.90;;;;;;6133810;23;20021;-79
2022/01/31 06:31:20;;;;;;;22.05;3.75;;;5.20;99.90;;;;;;6134308;23;20025;-78
2022/01/31 06:33:48;;;;;;;13.88;2.95;;;5.20;99.90;;;;;;6133871;23;20025;-78
2022/01/31 06:36:14;;;;;;;19.63;3.40;;;5.20;99.90;;;;;;6184699;23;20025;-78
2022/01/31 06:38:40;;;;;;;22.48;3.30;;;5.30;99.90;;;;;;6158723;23;20021;-77
2022/01/31 06:41:11;;;;;;;19.80;3.20;;;5.30;99.90;;;;;;6158502;23;20345;-78
2022/01/31 06:43:36;;;;;;;13.45;3.28;;;5.30;99.90;;;;;;6158333;23;20027;-78
2022/01/31 06:46:07;;;;;;;20.25;2.80;;;5.40;99.90;;;;;;6129100;23;20029;-78
2022/01/31 06:48:33;;;;;;;18.90;3.15;;;5.40;99.90;;;;;;6128821;23;20030;-78
2022/01/31 06:50:59;;;;;;;15.68;3.55;;;5.40;99.90;;;;;;6153257;23;20356;-78
2022/01/31 06:53:27;;;;;;;25.50;3.90;;;5.40;99.90;;;;;;6128716;23;20076;-78
2022/01/31 06:56:01;;;;;;;21.38;4.47;;;5.50;99.90;;;;;;6152639;23;20026;-78
2022/01/31 06:58:27;;;;;;;23.58;4.53;;;5.50;99.90;;;;;;6155013;23;20438;-77
2022/01/31 07:00:54;;;;;;;24.70;5.10;;;5.40;99.90;;;;;;6152945;23;20060;-77
2022/01/31 07:03:23;;;;;;;23.52;3.03;;;5.40;99.90;;;;;;6154877;23;20024;-78
2022/01/31 07:05:48;;;;;;;12.93;2.78;;;5.40;99.90;;;;;;6128478;23;20520;-77
2022/01/31 07:08:16;;;;;;;22.67;4.40;;;5.30;99.90;;;;;;6153785;23;20025;-78
2022/01/31 07:10:50;;;;;;;26.92;3.20;;;5.30;99.90;;;;;;6132045;23;20465;-78
2022/01/31 07:16:00;;;;;;;24.13;3.97;;;5.30;99.90;;;;;;6158460;23;20029;-78
2022/01/31 07:18:26;;;;;;;24.42;3.33;;;5.30;99.90;;;;;;6153153;23;20091;-78
2022/01/31 07:20:53;;;;;;;23.15;3.72;;;5.30;99.90;;;;;;6104276;23;20032;-79
2022/01/31 07:23:39;;;;;;;26.58;3.95;;;5.20;99.90;;;;;;6153140;23;20357;-78
2022/01/31 07:26:07;;;;;;;17.10;2.25;;;5.20;99.90;;;;;;6127908;23;20335;-78
2022/01/31 07:28:33;;;;;;;25.70;4.63;;;5.20;99.90;;;;;;6152914;23;20080;-77
2022/01/31 07:31:04;;;;;;;26.02;4.60;;;5.20;99.90;;;;;;6105007;23;20477;-78
2022/01/31 07:33:30;;;;;;;23.83;2.85;;;5.20;99.90;;;;;;6128908;23;20021;-77
2022/01/31 07:35:55;;;;;;;13.95;2.08;;;5.30;99.90;;;;;;6155147;23;20064;-78
2022/01/31 07:38:22;;;;;;;17.05;2.08;;;5.30;99.90;;;;;;6152866;23;20446;-78
2022/01/31 07:40:48;;;;;;;12.55;1.75;;;5.30;99.90;;;;;;6128732;23;20025;-76
2022/01/31 07:43:14;;;;;;;15.07;2.58;;;5.40;99.90;;;;;;6153012;23;20079;-78
2022/01/31 07:45:40;;;;;;;18.20;3.17;;;5.40;99.90;;;;;;6167242;23;20824;-78
2022/01/31 07:48:06;;;;;;;12.38;2.47;;;5.40;99.90;;;;;;6157943;23;20063;-77
2022/01/31 07:50:33;;;;;;;27.30;4.22;;;5.40;99.90;;;;;;6133008;23;20064;-77
2022/01/31 07:52:59;;;;;;;18.23;2.60;;;5.40;99.90;;;;;;6133812;23;20465;-78
2022/01/31 07:55:25;;;;;;;17.00;2.60;;;5.40;99.90;;;;;;6184455;23;20021;-76
2022/01/31 07:57:54;;;;;;;22.27;2.80;;;5.40;99.90;;;;;;6133087;23;20025;-77
2022/01/31 08:00:21;;;;;;;14.20;3.35;;;5.40;99.90;;;;;;6134493;23;20025;-77
2022/01/31 08:02:56;;;;;;;26.70;3.83;;;5.40;99.90;;;;;;6160407;23;20158;-81
2022/01/31 08:05:29;;;;;;;18.08;2.63;;;5.40;99.90;;;;;;6136727;23;20025;-78
2022/01/31 08:07:59;;;;;;;15.77;3.70;;;5.50;99.90;;;;;;6132239;23;20024;-77
2022/01/31 08:10:26;;;;;;;10.80;1.70;;;5.50;99.90;;;;;;6133277;23;20028;-78
2022/01/31 08:13:12;;;;;;;14.05;1.75;;;5.60;99.90;;;;;;6137398;23;20044;-78
2022/01/31 08:15:49;;;;;;;16.33;1.98;;;5.60;99.90;;;;;;6157975;23;20021;-77
2022/01/31 08:18:15;;;;;;;11.00;2.47;;;5.70;99.90;;;;;;6157621;23;20029;-77
2022/01/31 08:20:48;;;;;;;16.02;2.40;;;5.70;99.90;;;;;;6158330;23;20064;-78
2022/01/31 08:23:13;;;;;;;18.70;2.85;;;5.70;99.90;;;;;;6157427;23;20029;-78
2022/01/31 08:25:39;;;;;;;15.38;1.95;;;5.70;99.90;;;;;;6133257;23;20457;-76
2022/01/31 08:28:10;;;;;;;26.55;2.97;;;5.70;99.90;;;;;;6156712;23;20029;-77
2022/01/31 08:31:01;;;;;;;18.95;4.25;;;5.70;99.90;;;;;;6134032;23;20031;-77
2022/01/31 08:33:35;;;;;;;17.88;3.55;;;5.80;99.90;;;;;;6157807;23;20052;-78
2022/01/31 08:36:04;;;;;;;17.10;2.97;;;5.90;99.90;;;;;;6184269;23;20028;-77
2022/01/31 08:38:30;;;;;;;23.67;3.47;;;6.10;99.90;;;;;;6157828;23;20044;-78
2022/01/31 08:40:57;;;;;;;22.02;2.35;;;6.20;99.90;;;;;;6184256;23;20021;-78
2022/01/31 08:43:24;;;;;;;14.57;2.00;;;6.30;99.90;;;;;;6158180;23;20401;-78
2022/01/31 08:45:53;;;;;;;18.38;2.88;;;6.20;99.90;;;;;;6128282;23;20057;-79
2022/01/31 08:48:19;;;;;;;15.88;2.17;;;6.10;99.90;;;;;;6154500;23;20061;-77
2022/01/31 08:50:48;;;;;;;19.23;3.10;;;6.20;99.90;;;;;;6177823;23;20060;-77
2022/01/31 08:53:14;;;;;;;12.07;2.25;;;6.30;99.90;;;;;;6153813;23;20389;-77
2022/01/31 08:55:49;;;;;;;11.05;2.25;;;6.30;99.90;;;;;;6154527;23;20022;-78
2022/01/31 08:58:15;;;;;;;15.65;3.33;;;6.50;99.90;;;;;;6158436;23;20022;-80
2022/01/31 09:00:57;;;;;;;16.40;3.70;;;6.50;99.90;;;;;;6157369;23;20349;-77
2022/01/31 09:06:05;;;;;;;21.10;3.97;;;6.60;99.90;;;;;;6132448;23;20029;-78
2022/01/31 09:08:39;;;;;;;17.63;2.97;;;6.60;99.90;;;;;;6132483;23;20017;-78
2022/01/31 09:11:26;;;;;;;22.05;2.58;;;6.70;99.90;;;;;;6134241;23;20112;-76
2022/01/31 09:14:07;;;;;;;18.02;3.05;;;6.90;99.90;;;;;;6133486;23;20392;-77
2022/01/31 09:16:34;;;;;;;20.15;3.33;;;7.00;99.90;;;;;;6130759;23;20458;-77
2022/01/31 09:19:00;;;;;;;19.88;3.08;;;7.10;99.90;;;;;;6106365;23;20025;-78
2022/01/31 09:21:26;;;;;;;18.65;3.75;;;7.10;99.90;;;;;;6154178;23;20521;-78
2022/01/31 09:23:54;;;;;;;15.43;2.40;;;7.00;99.90;;;;;;6154471;23;20022;-78
2022/01/31 09:26:23;;;;;;;15.15;2.67;;;6.90;99.90;;;;;;6129209;23;20061;-77
2022/01/31 09:28:54;;;;;;;16.45;2.58;;;6.90;99.90;;;;;;6130756;23;20398;-77
2022/01/31 09:31:22;;;;;;;12.55;2.70;;;6.90;99.90;;;;;;6149618;23;20025;-78
2022/01/31 09:33:56;;;;;;;20.48;3.33;;;7.00;99.90;;;;;;6130552;23;20021;-78
2022/01/31 09:36:22;;;;;;;19.65;3.30;;;7.10;99.90;;;;;;6154597;23;20022;-78
2022/01/31 09:38:50;;;;;;;19.30;3.28;;;7.10;99.90;;;;;;6154587;23;20024;-78
2022/01/31 09:41:26;;;;;;;20.17;3.30;;;7.20;99.90;;;;;;6131995;23;20209;-78
2022/01/31 09:44:09;;;;;;;18.98;4.07;;;7.30;99.90;;;;;;6129847;23;20081;-78
2022/01/31 09:49:34;;;;;;;23.10;3.28;;;7.50;99.90;;;;;;6132286;23;20361;-78
2022/01/31 09:52:00;;;;;;;18.77;3.10;;;7.50;99.90;;;;;;6105889;23;20108;-78
2022/01/31 09:54:30;;;;;;;22.35;3.67;;;7.50;99.90;;;;;;6131390;23;20112;-78
2022/01/31 09:56:57;;;;;;;18.77;3.50;;;7.70;99.90;;;;;;6130076;23;20026;-78
2022/01/31 09:59:23;;;;;;;13.38;2.72;;;7.70;99.90;;;;;;6129615;23;20349;-78
2022/01/31 10:01:52;;;;;;;13.00;2.45;;;7.80;99.90;;;;;;6154301;23;20022;-78
2022/01/31 10:04:24;;;;;;;18.77;2.88;;;7.80;99.90;;;;;;6106254;23;20089;-78
2022/01/31 10:06:53;;;;;;;15.38;2.38;;;7.90;99.90;;;;;;6081691;23;20119;-78
2022/01/31 10:09:21;;;;;;;17.52;2.75;;;8.00;99.90;;;;;;6130002;23;20025;-77
2022/01/31 10:11:53;;;;;;;25.70;4.50;;;8.00;99.90;;;;;;6154377;23;20115;-77
2022/01/31 10:17:21;;;;;;;22.55;3.28;;;8.10;99.90;;;;;;6156562;23;20045;-78
2022/01/31 10:19:47;;;;;;;25.17;3.80;;;8.30;99.90;;;;;;6153945;23;20025;-77
2022/01/31 10:22:16;;;;;;;19.50;5.05;;;8.40;99.90;;;;;;6129807;23;20349;-78
2022/01/31 10:24:47;;;;;;;25.88;4.05;;;8.40;99.90;;;;;;6154286;23;20029;-77
2022/01/31 10:27:27;;;;;;;15.40;3.53;;;8.50;99.90;;;;;;6129462;23;20053;-77
2022/01/31 10:30:07;;;;;;;23.02;4.38;;;8.70;99.90;;;;;;6129258;23;20049;-77
2022/01/31 10:32:36;;;;;;;24.42;5.18;;;8.80;99.90;;;;;;6131822;23;20473;-77
2022/01/31 10:35:18;;;;;;;20.98;3.45;;;9.10;99.90;;;;;;6154252;23;20021;-77
2022/01/31 10:37:44;;;;;;;23.50;4.80;;;9.20;99.90;;;;;;6153942;23;20053;-77
2022/01/31 10:52:04;;;;;;;21.67;4.00;;;9.90;99.90;;;;;;6136067;23;20056;-76
2022/01/31 10:57:20;;;;;;;35.13;4.75;;;10.00;99.90;;;;;;6159954;23;20057;-78
2022/01/31 11:00:11;;;;;;;26.52;4.30;;;10.00;99.90;;;;;;6179859;23;20017;-78
2022/01/31 11:02:37;;;;;;;30.63;4.75;;;9.90;99.90;;;;;;6108326;23;20025;-77
2022/01/31 11:05:03;;;;;;;32.58;5.18;;;9.90;99.90;;;;;;6158206;23;20024;-77
2022/01/31 11:07:29;;;;;;;36.30;6.85;;;9.90;99.90;;;;;;6134351;23;20021;-77
2022/01/31 11:09:55;;;;;;;28.40;4.55;;;10.40;99.90;;;;;;6158574;23;20091;-78
2022/01/31 11:12:24;;;;;;;31.15;5.82;;;10.80;99.90;;;;;;6134054;23;20025;-77
2022/01/31 11:14:53;;;;;;;35.20;5.25;;;11.20;99.90;;;;;;6158312;23;20017;-78
2022/01/31 11:17:19;;;;;;;35.05;5.25;;;11.40;99.90;;;;;;6185252;23;20031;-78
2022/01/31 11:19:48;;;;;;;30.40;6.10;;;11.20;99.90;;;;;;6157402;23;20021;-77
2022/01/31 11:22:16;;;;;;;28.38;4.90;;;11.30;99.90;;;;;;6109796;23;20472;-78
2022/01/31 11:24:49;;;;;;;29.05;5.30;;;11.50;99.90;;;;;;6110090;23;20025;-78
2022/01/31 11:27:22;;;;;;;30.15;5.95;;;11.30;99.90;;;;;;6158592;23;20021;-77
2022/01/31 11:29:56;;;;;;;28.77;5.13;;;11.00;99.90;;;;;;6185500;23;20021;-78
2022/01/31 11:32:24;;;;;;;27.60;5.43;;;10.80;99.90;;;;;;6159048;23;20449;-78
2022/01/31 11:34:51;;;;;;;26.83;4.40;;;11.60;99.90;;;;;;6111551;23;20028;-78
2022/01/31 11:37:21;;;;;;;22.70;3.88;;;12.20;99.90;;;;;;6160981;23;20021;-79
2022/01/31 11:39:52;;;;;;;32.45;6.00;;;12.50;99.90;;;;;;6137964;23;20105;-77
2022/01/31 11:42:20;;;;;;;27.45;4.97;;;12.70;99.90;;;;;;6160218;23;20083;-77
2022/01/31 11:45:01;;;;;;;34.72;6.30;;;13.10;99.90;;;;;;6135246;23;20089;-79
2022/01/31 11:47:29;;;;;;;32.60;6.20;;;13.50;99.90;;;;;;6158771;23;20021;-78
2022/01/31 11:50:02;;;;;;;29.73;4.75;;;14.00;99.90;;;;;;6157960;23;20278;-78
2022/01/31 11:53:00;;;;;;;26.17;5.80;;;14.10;99.90;;;;;;6133876;23;20060;-76
2022/01/31 11:55:31;;;;;;;26.17;4.10;;;14.60;99.90;;;;;;6149489;23;20028;-77
2022/01/31 11:58:17;;;;;;;23.58;4.70;;;15.10;99.60;;;;;;6087500;23;20028;-77
2022/01/31 12:00:47;;;;;;;38.17;4.88;;;14.70;99.40;;;;;;6138528;23;20021;-77
2022/01/31 12:03:16;;;;;;;53.50;5.95;;;13.80;99.90;;;;;;6158096;23;20424;-77
2022/01/31 12:05:43;;;;;;;24.65;4.05;;;13.00;99.90;;;;;;6109700;23;20017;-77
2022/01/31 12:08:50;;;;;;;21.75;4.80;;;12.20;99.90;;;;;;6157233;23;20032;-78
2022/01/31 12:11:24;;;;;;;33.63;6.93;;;11.70;99.90;;;;;;6157352;23;20028;-78
2022/01/31 12:13:56;;;;;;;18.80;4.53;;;11.00;99.90;;;;;;6178875;23;20336;-78
2022/01/31 12:17:15;;;;;;;23.95;4.65;;;10.60;99.90;;;;;;6134682;23;20025;-78
2022/01/31 12:22:11;;;;;;;25.13;4.65;;;10.50;99.90;;;;;;6132807;23;20036;-78
2022/01/31 12:24:51;;;;;;;30.77;7.70;;;10.40;99.90;;;;;;6110943;23;20083;-76
2022/01/31 12:27:40;;;;;;;34.80;6.63;;;10.30;99.90;;;;;;6109749;23;20056;-77
2022/01/31 12:30:07;;;;;;;28.63;4.97;;;10.20;99.90;;;;;;6156348;23;20064;-78
2022/01/31 12:32:36;;;;;;;22.20;4.85;;;10.00;99.90;;;;;;6109792;23;20021;-77
2022/01/31 12:35:24;;;;;;;25.65;4.35;;;9.90;99.90;;;;;;6160506;23;20437;-78
2022/01/31 12:37:53;;;;;;;23.42;5.13;;;9.90;99.90;;;;;;6158841;23;20025;-77
2022/01/31 12:40:29;;;;;;;36.63;5.53;;;9.80;99.90;;;;;;6159125;23;20048;-78
2022/01/31 12:45:39;;;;;;;29.25;4.35;;;9.80;99.90;;;;;;6159165;23;20449;-78
2022/01/31 12:48:42;;;;;;;34.38;5.53;;;9.70;99.90;;;;;;6159458;23;20028;-77
2022/01/31 12:51:15;;;;;;;29.90;5.53;;;9.50;99.90;;;;;;6156506;23;20033;-78
2022/01/31 12:53:47;;;;;;;39.28;6.10;;;9.30;99.90;;;;;;6160336;23;20420;-78
2022/01/31 12:56:39;;;;;;;31.92;5.68;;;9.20;99.90;;;;;;6111779;23;20401;-78
2022/01/31 12:59:29;;;;;;;29.90;6.22;;;9.20;99.90;;;;;;6110493;23;20469;-77
2022/01/31 13:01:55;;;;;;;35.53;6.18;;;9.10;99.90;;;;;;6159464;23;20029;-77
2022/01/31 13:04:27;;;;;;;33.03;5.55;;;9.00;99.90;;;;;;6159595;23;20025;-77
2022/01/31 13:06:59;;;;;;;28.08;6.40;;;8.80;99.90;;;;;;6159784;23;20021;-77
2022/01/31 13:09:38;;;;;;;44.75;6.97;;;8.80;99.90;;;;;;6159403;23;20088;-78
2022/01/31 13:12:12;;;;;;;38.45;7.00;;;8.80;99.90;;;;;;6160014;23;20021;-79
2022/01/31 13:14:48;;;;;;;31.23;6.17;;;8.80;99.90;;;;;;6135510;23;20104;-78
2022/01/31 13:17:26;;;;;;;44.97;6.20;;;8.80;99.90;;;;;;6159495;23;20396;-78
2022/01/31 13:19:57;;;;;;;37.83;6.47;;;8.80;99.90;;;;;;6159576;23;20028;-78
2022/01/31 13:25:02;;;;;;;26.83;6.05;;;8.70;99.90;;;;;;6159003;23;20326;-78
2022/01/31 13:27:36;;;;;;;30.75;5.07;;;8.70;99.90;;;;;;6111457;23;20040;-77
2022/01/31 13:30:05;;;;;;;33.20;5.25;;;8.70;99.90;;;;;;6133573;23;20017;-79
2022/01/31 13:32:34;;;;;;;34.35;5.63;;;8.60;99.90;;;;;;6158950;23;20021;-77
2022/01/31 13:35:03;;;;;;;26.35;5.55;;;8.60;99.90;;;;;;6159558;23;20024;-78